createdAt,value
2023-04-16T00:00:38.817Z,8.65
2023-04-16T00:01:41.535Z,8.82
2023-04-16T00:02:44.269Z,8.93
2023-04-16T00:03:47.160Z,7.80
2023-04-16T00:04:49.956Z,7.45
2023-04-16T00:05:55.984Z,7.90
2023-04-16T00:06:58.355Z,7.38
2023-04-16T00:08:03.269Z,6.70
2023-04-16T00:09:05.749Z,7.35
2023-04-16T00:10:08.799Z,6.97
2023-04-16T00:11:11.775Z,7.35
2023-04-16T00:12:15.084Z,7.40
2023-04-16T00:13:17.626Z,7.43
2023-04-16T00:14:20.264Z,7.57
2023-04-16T00:15:22.884Z,8.13
2023-04-16T00:16:38.761Z,7.68
2023-04-16T00:17:42.716Z,8.00
2023-04-16T00:18:45.257Z,8.50
2023-04-16T00:19:47.513Z,8.35
2023-04-16T00:20:50.897Z,7.97
2023-04-16T00:21:53.288Z,7.65
2023-04-16T00:22:55.733Z,7.18
2023-04-16T00:23:58.103Z,7.70
2023-04-16T00:25:00.461Z,8.23
2023-04-16T00:26:02.867Z,7.93
2023-04-16T00:27:06.537Z,7.63
2023-04-16T00:28:10.950Z,7.43
2023-04-16T00:29:13.617Z,7.18
2023-04-16T00:30:16.343Z,6.97
2023-04-16T00:31:18.800Z,7.85
2023-04-16T00:32:21.192Z,7.50
2023-04-16T00:33:24.227Z,8.43
2023-04-16T00:34:26.713Z,7.68
2023-04-16T00:35:29.027Z,7.55
2023-04-16T00:36:31.491Z,6.30
2023-04-16T00:37:34.007Z,7.53
2023-04-16T00:38:37.177Z,7.38
2023-04-16T00:39:39.572Z,7.22
2023-04-16T00:40:41.865Z,7.95
2023-04-16T00:41:44.897Z,6.97
2023-04-16T00:42:47.202Z,7.30
2023-04-16T00:43:50.126Z,6.72
2023-04-16T00:44:52.404Z,6.90
2023-04-16T00:45:57.069Z,7.05
2023-04-16T00:47:00.041Z,6.68
2023-04-16T00:48:03.145Z,6.68
2023-04-16T00:49:05.768Z,6.45
2023-04-16T00:50:08.412Z,6.65
2023-04-16T00:51:11.738Z,6.93
2023-04-16T00:52:14.784Z,7.03
2023-04-16T00:53:17.188Z,6.57
2023-04-16T00:54:19.934Z,6.60
2023-04-16T00:55:22.330Z,6.28
2023-04-16T00:56:25.222Z,6.38
2023-04-16T00:57:28.171Z,7.38
2023-04-16T00:58:31.075Z,6.57
2023-04-16T00:59:33.577Z,6.10
2023-04-16T01:00:35.943Z,6.28
2023-04-16T01:01:38.334Z,6.25
2023-04-16T01:02:40.785Z,6.07
2023-04-16T01:03:49.021Z,6.13
2023-04-16T01:04:51.831Z,6.30
2023-04-16T01:05:54.088Z,5.97
2023-04-16T01:06:56.777Z,6.43
2023-04-16T01:08:03.462Z,6.35
2023-04-16T01:09:07.132Z,6.22
2023-04-16T01:10:10.250Z,5.15
2023-04-16T01:11:12.764Z,6.47
2023-04-16T01:12:15.127Z,7.00
2023-04-16T01:13:17.452Z,6.78
2023-04-16T01:14:19.805Z,6.53
2023-04-16T01:15:22.167Z,6.95
2023-04-16T01:16:24.660Z,6.60
2023-04-16T01:17:27.069Z,6.10
2023-04-16T01:18:29.439Z,6.85
2023-04-16T01:19:32.011Z,7.00
2023-04-16T01:20:37.163Z,7.28
2023-04-16T01:21:39.783Z,7.78
2023-04-16T01:22:42.880Z,6.93
2023-04-16T01:23:45.141Z,7.18
2023-04-16T01:24:47.496Z,6.30
2023-04-16T01:25:51.134Z,7.28
2023-04-16T01:26:53.585Z,6.78
2023-04-16T01:27:57.508Z,7.10
2023-04-16T01:29:00.612Z,6.78
2023-04-16T01:30:03.223Z,7.28
2023-04-16T01:31:16.129Z,7.28
2023-04-16T01:32:24.588Z,7.07
2023-04-16T01:33:27.116Z,7.70
2023-04-16T01:34:29.584Z,6.80
2023-04-16T01:35:31.801Z,7.55
2023-04-16T01:36:34.103Z,7.80
2023-04-16T01:37:36.453Z,8.30
2023-04-16T01:38:38.955Z,7.85
2023-04-16T01:39:41.337Z,7.97
2023-04-16T01:40:44.016Z,7.53
2023-04-16T01:41:47.092Z,7.25
2023-04-16T01:42:49.642Z,7.28
2023-04-16T01:43:52.047Z,7.53
2023-04-16T01:44:54.398Z,7.45
2023-04-16T01:46:29.439Z,6.47
2023-04-16T01:47:32.181Z,6.78
2023-04-16T01:48:34.629Z,7.45
2023-04-16T01:49:37.082Z,7.07
2023-04-16T01:50:39.492Z,7.97
2023-04-16T01:51:42.417Z,7.88
2023-04-16T01:52:46.052Z,7.55
2023-04-16T01:53:49.376Z,7.95
2023-04-16T01:54:51.757Z,7.88
2023-04-16T01:55:54.157Z,7.97
2023-04-16T01:56:57.270Z,8.25
2023-04-16T01:57:59.683Z,7.13
2023-04-16T01:59:05.362Z,7.45
2023-04-16T02:00:13.606Z,7.45
2023-04-16T02:01:22.030Z,8.27
2023-04-16T02:02:28.345Z,8.20
2023-04-16T02:03:31.502Z,7.90
2023-04-16T02:04:34.071Z,7.40
2023-04-16T02:05:36.406Z,6.25
2023-04-16T02:06:39.632Z,8.20
2023-04-16T02:07:42.125Z,7.53
2023-04-16T02:08:44.464Z,7.70
2023-04-16T02:09:46.911Z,7.93
2023-04-16T02:10:50.386Z,8.02
2023-04-16T02:11:52.840Z,7.70
2023-04-16T02:12:55.250Z,8.40
2023-04-16T02:13:57.568Z,8.20
2023-04-16T02:15:00.796Z,7.45
2023-04-16T02:16:04.686Z,8.38
2023-04-16T02:17:17.320Z,9.02
2023-04-16T02:18:21.224Z,8.07
2023-04-16T02:19:24.246Z,8.43
2023-04-16T02:20:26.823Z,8.23
2023-04-16T02:21:33.901Z,7.50
2023-04-16T02:22:36.262Z,8.93
2023-04-16T02:23:41.203Z,8.40
2023-04-16T02:24:43.578Z,8.80
2023-04-16T02:25:47.765Z,8.70
2023-04-16T02:26:51.351Z,8.85
2023-04-16T02:27:54.807Z,8.52
2023-04-16T02:29:07.099Z,9.40
2023-04-16T02:30:18.367Z,9.48
2023-04-16T02:31:22.555Z,8.20
2023-04-16T02:32:25.292Z,9.25
2023-04-16T02:33:28.917Z,9.40
2023-04-16T02:34:40.148Z,8.98
2023-04-16T02:35:43.238Z,9.15
2023-04-16T02:36:46.322Z,8.35
2023-04-16T02:37:48.662Z,9.38
2023-04-16T02:38:51.223Z,10.27
2023-04-16T02:39:53.838Z,10.27
2023-04-16T02:40:56.328Z,9.75
2023-04-16T02:41:59.578Z,9.57
2023-04-16T02:43:02.506Z,9.65
2023-04-16T02:44:05.082Z,9.57
2023-04-16T02:45:07.968Z,9.65
2023-04-16T02:46:10.569Z,10.38
2023-04-16T02:47:13.178Z,9.13
2023-04-16T02:48:15.689Z,10.07
2023-04-16T02:49:18.291Z,9.48
2023-04-16T02:50:20.646Z,9.40
2023-04-16T02:51:23.048Z,10.18
2023-04-16T02:52:25.474Z,10.10
2023-04-16T02:53:27.845Z,10.02
2023-04-16T02:54:30.288Z,10.05
2023-04-16T02:55:32.646Z,10.20
2023-04-16T02:56:35.091Z,9.75
2023-04-16T02:57:37.457Z,9.65
2023-04-16T02:58:39.892Z,9.73
2023-04-16T02:59:42.661Z,9.93
2023-04-16T03:00:45.202Z,9.98
2023-04-16T03:01:47.824Z,9.20
2023-04-16T03:02:50.984Z,9.38
2023-04-16T03:03:53.519Z,8.80
2023-04-16T03:04:55.873Z,9.75
2023-04-16T03:05:58.216Z,10.15
2023-04-16T03:07:00.609Z,9.68
2023-04-16T03:08:04.197Z,9.88
2023-04-16T03:09:06.596Z,9.20
2023-04-16T03:10:09.489Z,9.93
2023-04-16T03:11:11.879Z,9.65
2023-04-16T03:12:14.199Z,9.70
2023-04-16T03:13:16.719Z,9.90
2023-04-16T03:14:20.098Z,10.63
2023-04-16T03:15:22.385Z,9.65
2023-04-16T03:16:24.749Z,9.52
2023-04-16T03:17:27.106Z,10.00
2023-04-16T03:18:29.870Z,10.57
2023-04-16T03:19:32.211Z,10.52
2023-04-16T03:20:34.852Z,10.73
2023-04-16T03:21:37.321Z,10.38
2023-04-16T03:22:39.889Z,10.85
2023-04-16T03:23:42.145Z,10.02
2023-04-16T03:24:44.469Z,9.35
2023-04-16T03:25:48.165Z,9.35
2023-04-16T03:26:53.367Z,8.48
2023-04-16T03:27:58.080Z,8.43
2023-04-16T03:29:02.258Z,10.50
2023-04-16T03:30:08.040Z,9.07
2023-04-16T03:31:11.500Z,9.48
2023-04-16T03:32:14.539Z,9.45
2023-04-16T03:33:16.850Z,10.23
2023-04-16T03:34:19.237Z,9.73
2023-04-16T03:35:22.229Z,9.95
2023-04-16T03:36:24.605Z,10.00
2023-04-16T03:37:27.141Z,9.57
2023-04-16T03:38:29.458Z,10.25
2023-04-16T03:39:34.696Z,10.05
2023-04-16T03:40:37.019Z,9.00
2023-04-16T03:41:39.312Z,10.05
2023-04-16T03:42:41.968Z,9.55
2023-04-16T03:43:44.409Z,9.45
2023-04-16T03:44:46.741Z,9.50
2023-04-16T03:45:50.197Z,8.63
2023-04-16T03:46:55.207Z,9.32
2023-04-16T03:47:58.123Z,8.93
2023-04-16T03:49:01.749Z,8.18
2023-04-16T03:50:04.694Z,7.80
2023-04-16T03:51:07.099Z,8.50
2023-04-16T03:52:11.385Z,8.10
2023-04-16T03:53:13.920Z,8.77
2023-04-16T03:54:16.370Z,8.75
2023-04-16T03:55:23.663Z,8.25
2023-04-16T03:56:26.065Z,8.30
2023-04-16T03:57:29.099Z,8.75
2023-04-16T03:58:36.851Z,7.57
2023-04-16T03:59:39.128Z,7.63
2023-04-16T04:00:44.513Z,8.52
2023-04-16T04:01:49.812Z,7.60
2023-04-16T04:02:53.081Z,9.48
2023-04-16T04:03:56.104Z,9.70
2023-04-16T04:04:58.513Z,8.45
2023-04-16T04:06:00.922Z,9.70
2023-04-16T04:07:05.776Z,9.50
2023-04-16T04:08:08.827Z,9.40
2023-04-16T04:09:11.963Z,10.00
2023-04-16T04:10:14.869Z,10.32
2023-04-16T04:11:17.820Z,11.25
2023-04-16T04:12:20.157Z,9.65
2023-04-16T04:13:23.228Z,9.80
2023-04-16T04:14:26.828Z,9.48
2023-04-16T04:15:29.189Z,8.15
2023-04-16T04:16:32.517Z,8.82
2023-04-16T04:17:35.303Z,9.18
2023-04-16T04:18:38.406Z,8.75
2023-04-16T04:19:47.145Z,7.70
2023-04-16T04:20:58.010Z,9.45
2023-04-16T04:22:04.512Z,8.57
2023-04-16T04:23:06.879Z,9.10
2023-04-16T04:24:09.389Z,8.23
2023-04-16T04:25:11.741Z,8.35
2023-04-16T04:26:19.835Z,7.82
2023-04-16T04:27:22.277Z,8.13
2023-04-16T04:28:24.748Z,7.88
2023-04-16T04:29:27.404Z,7.32
2023-04-16T04:30:30.447Z,7.13
2023-04-16T04:31:32.849Z,6.95
2023-04-16T04:32:35.377Z,6.47
2023-04-16T04:33:37.678Z,7.15
2023-04-16T04:34:40.154Z,6.85
2023-04-16T04:35:44.153Z,7.28
2023-04-16T04:36:46.508Z,7.07
2023-04-16T04:37:49.694Z,7.07
2023-04-16T04:38:54.903Z,7.28
2023-04-16T04:39:57.966Z,6.85
2023-04-16T04:41:00.378Z,6.97
2023-04-16T04:42:06.240Z,6.75
2023-04-16T04:43:08.680Z,6.32
2023-04-16T04:44:11.003Z,7.05
2023-04-16T04:45:13.451Z,6.53
2023-04-16T04:46:16.949Z,6.25
2023-04-16T04:47:19.335Z,5.82
2023-04-16T04:48:27.286Z,7.07
2023-04-16T04:49:31.139Z,6.28
2023-04-16T04:50:33.388Z,6.75
2023-04-16T04:51:35.963Z,6.80
2023-04-16T04:52:38.244Z,6.22
2023-04-16T04:53:41.671Z,6.70
2023-04-16T04:54:44.030Z,6.05
2023-04-16T04:55:49.217Z,6.53
2023-04-16T04:56:53.609Z,6.53
2023-04-16T04:57:56.036Z,6.07
2023-04-16T04:58:58.680Z,7.10
2023-04-16T05:00:03.524Z,6.00
2023-04-16T05:01:14.469Z,6.47
2023-04-16T05:02:16.967Z,6.00
2023-04-16T05:03:20.601Z,6.13
2023-04-16T05:04:22.895Z,5.65
2023-04-16T05:05:25.331Z,5.95
2023-04-16T05:06:29.544Z,5.97
2023-04-16T05:07:32.438Z,5.50
2023-04-16T05:08:35.235Z,5.65
2023-04-16T05:09:37.674Z,5.25
2023-04-16T05:10:40.265Z,4.65
2023-04-16T05:11:42.963Z,5.32
2023-04-16T05:12:48.902Z,5.75
2023-04-16T05:13:51.600Z,5.07
2023-04-16T05:14:53.829Z,5.38
2023-04-16T05:15:56.354Z,5.55
2023-04-16T05:16:58.804Z,5.45
2023-04-16T05:18:01.524Z,4.32
2023-04-16T05:19:04.478Z,6.05
2023-04-16T05:20:08.625Z,5.00
2023-04-16T05:21:10.960Z,5.70
2023-04-16T05:22:13.813Z,5.95
2023-04-16T05:23:16.532Z,5.07
2023-04-16T05:24:19.884Z,5.50
2023-04-16T05:25:22.777Z,5.07
2023-04-16T05:26:25.204Z,5.38
2023-04-16T05:27:27.650Z,5.95
2023-04-16T05:28:30.722Z,6.35
2023-04-16T05:29:33.042Z,6.72
2023-04-16T05:30:35.514Z,5.53
2023-04-16T05:31:37.953Z,5.90
2023-04-16T05:32:41.580Z,5.00
2023-04-16T05:33:44.025Z,5.07
2023-04-16T05:34:52.308Z,5.72
2023-04-16T05:36:10.727Z,6.05
2023-04-16T05:37:16.559Z,5.82
2023-04-16T05:38:19.112Z,6.10
2023-04-16T05:39:21.988Z,5.60
2023-04-16T05:40:50.935Z,5.88
2023-04-16T05:41:53.516Z,5.88
2023-04-16T05:42:56.008Z,5.38
2023-04-16T05:43:58.402Z,5.13
2023-04-16T05:45:04.432Z,5.38
2023-04-16T05:46:07.439Z,5.85
2023-04-16T05:47:09.882Z,5.78
2023-04-16T05:48:12.647Z,5.57
2023-04-16T05:49:15.748Z,5.30
2023-04-16T05:50:18.238Z,5.25
2023-04-16T05:51:23.256Z,5.28
2023-04-16T05:52:25.865Z,5.65
2023-04-16T05:53:28.276Z,6.03
2023-04-16T05:54:30.973Z,5.60
2023-04-16T05:55:33.598Z,5.35
2023-04-16T05:56:36.406Z,5.32
2023-04-16T05:57:39.033Z,5.90
2023-04-16T05:58:41.513Z,5.43
2023-04-16T05:59:43.967Z,5.15
2023-04-16T06:00:46.464Z,5.28
2023-04-16T06:01:49.530Z,6.38
2023-04-16T06:02:52.027Z,5.28
2023-04-16T06:04:00.747Z,4.90
2023-04-16T06:05:07.405Z,4.88
2023-04-16T06:06:10.167Z,5.45
2023-04-16T06:07:12.648Z,5.45
2023-04-16T06:08:14.961Z,5.15
2023-04-16T06:09:18.136Z,5.53
2023-04-16T06:10:21.016Z,5.25
2023-04-16T06:11:23.567Z,5.78
2023-04-16T06:12:26.302Z,5.45
2023-04-16T06:13:28.688Z,5.55
2023-04-16T06:14:31.281Z,5.32
2023-04-16T06:15:34.572Z,5.55
2023-04-16T06:16:37.075Z,4.93
2023-04-16T06:17:40.714Z,5.35
2023-04-16T06:18:43.285Z,5.22
2023-04-16T06:19:48.398Z,4.97
2023-04-16T06:20:51.010Z,5.68
2023-04-16T06:21:53.953Z,5.55
2023-04-16T06:22:56.564Z,5.55
2023-04-16T06:23:59.136Z,5.10
2023-04-16T06:25:01.634Z,5.25
2023-04-16T06:26:05.003Z,5.05
2023-04-16T06:27:07.815Z,4.90
2023-04-16T06:28:17.455Z,5.28
2023-04-16T06:29:21.284Z,5.40
2023-04-16T06:30:25.120Z,5.25
2023-04-16T06:31:27.824Z,5.13
2023-04-16T06:32:30.587Z,5.53
2023-04-16T06:33:33.044Z,5.97
2023-04-16T06:34:41.025Z,5.07
2023-04-16T06:35:43.498Z,5.65
2023-04-16T06:36:46.533Z,5.38
2023-04-16T06:37:49.442Z,4.88
2023-04-16T06:38:51.939Z,4.60
2023-04-16T06:39:54.427Z,5.13
2023-04-16T06:40:57.017Z,5.18
2023-04-16T06:41:59.664Z,5.35
2023-04-16T06:43:02.113Z,5.55
2023-04-16T06:44:11.932Z,4.97
2023-04-16T06:45:16.341Z,5.00
2023-04-16T06:46:18.877Z,5.63
2023-04-16T06:47:21.679Z,5.13
2023-04-16T06:48:24.357Z,5.10
2023-04-16T06:49:27.021Z,4.75
2023-04-16T06:50:29.668Z,5.22
2023-04-16T06:51:35.388Z,4.80
2023-04-16T06:52:37.902Z,5.22
2023-04-16T06:53:40.471Z,4.68
2023-04-16T06:54:45.259Z,5.50
2023-04-16T06:55:47.671Z,5.35
2023-04-16T06:56:57.484Z,4.88
2023-04-16T06:58:05.150Z,5.00
2023-04-16T06:59:07.845Z,4.97
2023-04-16T07:00:11.276Z,5.07
2023-04-16T07:01:14.329Z,5.45
2023-04-16T07:02:17.125Z,5.15
2023-04-16T07:03:20.197Z,4.55
2023-04-16T07:04:30.689Z,4.45
2023-04-16T07:05:49.800Z,5.10
2023-04-16T07:06:52.255Z,4.18
2023-04-16T07:08:00.988Z,4.53
2023-04-16T07:09:12.736Z,4.85
2023-04-16T07:10:21.789Z,5.30
2023-04-16T07:11:37.446Z,4.53
2023-04-16T07:12:48.784Z,4.78
2023-04-16T07:13:53.489Z,4.50
2023-04-16T07:15:07.017Z,4.50
2023-04-16T07:16:10.040Z,4.57
2023-04-16T07:17:42.535Z,4.88
2023-04-16T07:21:39.775Z,4.80
2023-04-16T07:23:17.277Z,4.80
2023-04-16T07:24:23.441Z,4.88
2023-04-16T07:25:27.174Z,4.18
2023-04-16T07:26:29.715Z,4.95
2023-04-16T07:27:32.373Z,5.45
2023-04-16T07:28:48.544Z,4.63
2023-04-16T07:30:06.790Z,4.65
2023-04-16T07:31:09.717Z,4.30
2023-04-16T07:32:28.207Z,4.70
2023-04-16T07:35:04.062Z,4.75
2023-04-16T07:36:10.118Z,4.63
2023-04-16T07:37:12.537Z,4.60
2023-04-16T07:38:16.557Z,4.68
2023-04-16T07:39:19.325Z,4.68
2023-04-16T07:40:21.957Z,4.00
2023-04-16T07:41:24.824Z,4.32
2023-04-16T07:42:28.268Z,4.57
2023-04-16T07:43:38.189Z,4.18
2023-04-16T07:44:40.622Z,4.88
2023-04-16T07:45:43.108Z,4.68
2023-04-16T07:46:47.664Z,4.10
2023-04-16T07:47:50.505Z,4.57
2023-04-16T07:48:52.973Z,4.80
2023-04-16T07:49:55.591Z,4.18
2023-04-16T07:50:58.414Z,4.72
2023-04-16T07:52:01.486Z,4.10
2023-04-16T07:53:12.001Z,4.15
2023-04-16T07:54:15.758Z,3.80
2023-04-16T07:55:43.121Z,4.53
2023-04-16T07:57:02.940Z,4.18
2023-04-16T07:58:40.246Z,4.38
2023-04-16T08:01:36.281Z,3.67
2023-04-16T08:02:38.950Z,3.85
2023-04-16T08:03:42.912Z,4.20
2023-04-16T08:04:50.151Z,3.67
2023-04-16T08:05:55.548Z,4.70
2023-04-16T08:07:22.948Z,4.38
2023-04-16T08:10:18.710Z,3.80
2023-04-16T08:11:52.341Z,3.50
2023-04-16T08:12:58.367Z,4.00
2023-04-16T08:14:00.840Z,3.60
2023-04-16T08:15:09.750Z,3.58
2023-04-16T08:16:12.505Z,3.67
2023-04-16T08:17:15.825Z,4.30
2023-04-16T08:18:28.688Z,3.42
2023-04-16T08:19:49.337Z,3.30
2023-04-16T08:21:18.177Z,3.90
2023-04-16T08:22:20.625Z,3.33
2023-04-16T08:23:26.976Z,4.38
2023-04-16T08:26:00.039Z,3.72
2023-04-16T08:27:19.375Z,3.97
2023-04-16T08:28:49.307Z,4.05
2023-04-16T08:29:52.064Z,3.47
2023-04-16T08:31:00.575Z,3.67
2023-04-16T08:32:03.085Z,3.80
2023-04-16T08:33:06.357Z,3.75
2023-04-16T08:34:09.006Z,3.58
2023-04-16T08:35:13.547Z,3.70
2023-04-16T08:36:23.660Z,3.28
2023-04-16T08:37:26.715Z,3.60
2023-04-16T08:38:30.203Z,3.40
2023-04-16T08:40:55.024Z,3.47
2023-04-16T08:41:59.308Z,3.58
2023-04-16T08:43:03.406Z,3.60
2023-04-16T08:44:08.842Z,4.75
2023-04-16T08:45:28.282Z,4.38
2023-04-16T08:46:31.953Z,4.22
2023-04-16T08:47:55.094Z,3.15
2023-04-16T08:49:02.549Z,3.28
2023-04-16T08:50:14.450Z,3.13
2023-04-16T08:51:17.807Z,3.00
2023-04-16T08:52:21.593Z,3.42
2023-04-16T08:53:37.075Z,3.08
2023-04-16T08:55:13.946Z,3.42
2023-04-16T08:59:54.819Z,3.00
2023-04-16T09:00:57.313Z,3.33
2023-04-16T09:02:01.113Z,3.05
2023-04-16T09:04:07.778Z,3.50
2023-04-16T09:07:21.085Z,2.60
2023-04-16T09:08:23.822Z,3.08
2023-04-16T09:09:27.063Z,3.47
2023-04-16T09:10:29.985Z,3.65
2023-04-16T09:11:34.076Z,3.90
2023-04-16T09:12:42.728Z,3.40
2023-04-16T09:13:46.705Z,2.92
2023-04-16T09:14:52.368Z,2.95
2023-04-16T09:15:57.290Z,3.00
2023-04-16T09:17:02.603Z,3.00
2023-04-16T09:18:05.618Z,2.63
2023-04-16T09:19:08.141Z,3.10
2023-04-16T09:20:11.301Z,3.00
2023-04-16T09:21:15.114Z,2.95
2023-04-16T09:22:17.873Z,3.03
2023-04-16T09:23:20.701Z,3.60
2023-04-16T09:24:23.318Z,3.35
2023-04-16T09:25:26.619Z,3.25
2023-04-16T09:26:29.260Z,3.90
2023-04-16T09:27:32.209Z,3.03
2023-04-16T09:28:49.010Z,3.17
2023-04-16T09:29:51.476Z,2.67
2023-04-16T09:31:08.526Z,3.42
2023-04-16T09:32:12.400Z,3.45
2023-04-16T09:34:25.434Z,2.80
2023-04-16T09:35:27.915Z,2.42
2023-04-16T09:36:31.600Z,2.08
2023-04-16T09:37:34.000Z,3.28
2023-04-16T09:38:53.678Z,3.88
2023-04-16T09:39:58.008Z,2.72
2023-04-16T09:41:08.316Z,3.05
2023-04-16T09:42:11.200Z,3.67
2023-04-16T09:43:17.978Z,3.00
2023-04-16T09:44:21.603Z,2.90
2023-04-16T09:45:26.424Z,2.92
2023-04-16T09:46:44.235Z,3.05
2023-04-16T09:47:57.996Z,3.20
2023-04-16T09:49:27.519Z,2.88
2023-04-16T09:50:30.874Z,2.95
2023-04-16T09:52:00.025Z,2.40
2023-04-16T09:53:33.425Z,2.90
2023-04-16T09:54:55.941Z,3.00
2023-04-16T09:56:09.767Z,2.65
2023-04-16T09:57:12.541Z,2.40
2023-04-16T09:58:19.364Z,2.55
2023-04-16T09:59:22.932Z,2.25
2023-04-16T10:00:25.404Z,2.47
2023-04-16T10:01:28.035Z,2.30
2023-04-16T10:02:31.359Z,2.50
2023-04-16T10:03:35.981Z,2.33
2023-04-16T10:04:55.261Z,2.45
2023-04-16T10:06:19.627Z,2.53
2023-04-16T10:07:22.393Z,2.10
2023-04-16T10:08:24.904Z,2.20
2023-04-16T10:09:27.451Z,2.30
2023-04-16T10:10:30.470Z,2.30
2023-04-16T10:11:33.062Z,2.10
2023-04-16T10:12:35.881Z,2.30
2023-04-16T10:13:38.657Z,2.55
2023-04-16T10:14:41.655Z,2.28
2023-04-16T10:15:44.281Z,2.50
2023-04-16T10:16:47.829Z,2.17
2023-04-16T10:18:54.620Z,2.10
2023-04-16T10:19:58.801Z,2.17
2023-04-16T10:21:01.602Z,2.17
2023-04-16T10:22:05.831Z,2.08
2023-04-16T10:23:08.358Z,1.90
2023-04-16T10:24:11.403Z,2.15
2023-04-16T10:25:13.971Z,2.20
2023-04-16T10:26:18.606Z,2.30
2023-04-16T10:27:21.783Z,1.98
2023-04-16T10:28:25.253Z,2.08
2023-04-16T10:29:29.685Z,2.08
2023-04-16T10:30:33.464Z,2.10
2023-04-16T10:31:37.361Z,2.30
2023-04-16T10:32:41.194Z,2.55
2023-04-16T10:34:47.340Z,2.13
2023-04-16T10:36:40.247Z,2.65
2023-04-16T10:37:45.382Z,2.30
2023-04-16T10:38:50.473Z,2.40
2023-04-16T10:39:53.353Z,2.08
2023-04-16T10:41:06.461Z,2.03
2023-04-16T10:42:13.074Z,1.90
2023-04-16T10:43:19.857Z,2.00
2023-04-16T10:44:25.321Z,2.17
2023-04-16T10:45:33.333Z,1.83
2023-04-16T10:46:43.161Z,2.67
2023-04-16T10:47:46.531Z,2.10
2023-04-16T10:48:50.913Z,1.85
2023-04-16T10:49:58.523Z,1.65
2023-04-16T10:51:05.869Z,2.13
2023-04-16T10:52:12.626Z,2.13
2023-04-16T10:53:22.017Z,2.22
2023-04-16T10:54:29.355Z,2.00
2023-04-16T10:55:31.924Z,2.22
2023-04-16T10:56:35.566Z,2.35
2023-04-16T10:57:41.188Z,2.00
2023-04-16T10:59:09.457Z,2.80
2023-04-16T11:00:26.089Z,2.67
2023-04-16T11:01:42.604Z,1.80
2023-04-16T11:02:45.553Z,2.13
2023-04-16T11:03:48.489Z,2.00
2023-04-16T11:04:51.386Z,2.13
2023-04-16T11:06:23.091Z,1.80
2023-04-16T11:07:34.903Z,1.80
2023-04-16T11:08:51.176Z,1.75
2023-04-16T11:10:08.423Z,1.63
2023-04-16T11:11:13.601Z,1.80
2023-04-16T11:12:31.024Z,1.60
2023-04-16T11:14:02.599Z,1.70
2023-04-16T11:15:36.354Z,2.00
2023-04-16T11:16:50.640Z,1.95
2023-04-16T11:17:57.299Z,1.73
2023-04-16T11:19:02.864Z,2.10
2023-04-16T11:20:26.705Z,2.38
2023-04-16T11:21:29.577Z,1.60
2023-04-16T11:22:40.531Z,2.03
2023-04-16T11:23:53.395Z,1.75
2023-04-16T11:24:56.936Z,1.60
2023-04-16T11:26:27.672Z,1.60
2023-04-16T11:27:41.420Z,1.60
2023-04-16T11:28:48.189Z,1.90
2023-04-16T11:30:05.646Z,1.58
2023-04-16T11:31:16.526Z,1.40
2023-04-16T11:32:31.452Z,1.45
2023-04-16T11:33:34.268Z,1.58
2023-04-16T11:34:46.073Z,1.30
2023-04-16T11:35:58.390Z,1.50
2023-04-16T11:37:01.073Z,1.60
2023-04-16T11:38:06.690Z,1.40
2023-04-16T11:39:09.635Z,1.42
2023-04-16T11:40:13.242Z,1.60
2023-04-16T11:41:23.833Z,1.38
2023-04-16T11:42:30.925Z,1.45
2023-04-16T11:43:33.886Z,1.70
2023-04-16T11:44:36.495Z,1.20
2023-04-16T11:45:39.036Z,1.20
2023-04-16T11:46:47.933Z,1.10
2023-04-16T11:47:57.087Z,1.20
2023-04-16T11:49:00.126Z,1.70
2023-04-16T11:50:27.995Z,1.35
2023-04-16T11:52:00.145Z,1.30
2023-04-16T11:53:05.662Z,1.08
2023-04-16T11:54:11.694Z,1.20
2023-04-16T11:55:14.829Z,1.13
2023-04-16T11:56:52.805Z,1.42
2023-04-16T11:57:55.966Z,1.35
2023-04-16T11:59:21.420Z,1.00
2023-04-16T12:00:24.597Z,1.40
2023-04-16T12:01:35.264Z,1.65
2023-04-16T12:02:46.335Z,1.38
2023-04-16T12:03:50.021Z,1.30
2023-04-16T12:04:59.298Z,1.40
2023-04-16T12:06:08.851Z,1.10
2023-04-16T12:07:18.721Z,1.58
2023-04-16T12:08:41.018Z,1.40
2023-04-16T12:09:51.046Z,1.10
2023-04-16T12:12:18.354Z,1.60
2023-04-16T12:14:12.414Z,1.30
2023-04-16T12:15:47.844Z,1.30
2023-04-16T12:17:27.599Z,1.38
2023-04-16T12:18:42.110Z,1.25
2023-04-16T12:22:05.557Z,1.25
2023-04-16T12:23:41.911Z,1.50
2023-04-16T12:24:48.129Z,2.13
2023-04-16T12:26:04.404Z,1.90
2023-04-16T12:27:07.046Z,1.48
2023-04-16T12:28:09.601Z,1.20
2023-04-16T12:29:23.264Z,1.30
2023-04-16T12:30:32.118Z,1.23
2023-04-16T12:31:38.499Z,1.05
2023-04-16T12:32:47.309Z,1.08
2023-04-16T12:34:48.043Z,1.25
2023-04-16T12:35:49.489Z,1.33
2023-04-16T12:38:35.317Z,0.95
2023-04-16T12:39:39.881Z,1.23
2023-04-16T12:42:24.438Z,0.82
2023-04-16T12:43:52.420Z,1.13
2023-04-16T12:44:54.826Z,0.82
2023-04-16T12:45:57.421Z,1.40
2023-04-16T12:46:59.859Z,1.20
2023-04-16T12:48:02.413Z,1.40
2023-04-16T12:49:29.171Z,1.10
2023-04-16T12:50:31.965Z,1.08
2023-04-16T12:51:35.328Z,1.10
2023-04-16T12:52:37.845Z,1.10
2023-04-16T12:53:40.822Z,1.58
2023-04-16T12:54:43.505Z,1.35
2023-04-16T12:55:46.201Z,1.40
2023-04-16T12:56:54.016Z,1.35
2023-04-16T12:57:56.996Z,1.20
2023-04-16T12:59:01.225Z,1.40
2023-04-16T13:00:17.930Z,1.38
2023-04-16T13:01:21.065Z,1.25
2023-04-16T13:02:24.897Z,0.93
2023-04-16T13:03:59.826Z,1.40
2023-04-16T13:05:10.209Z,1.20
2023-04-16T13:06:14.952Z,1.20
2023-04-16T13:07:18.147Z,1.63
2023-04-16T13:08:21.469Z,1.05
2023-04-16T13:09:24.030Z,1.10
2023-04-16T13:10:28.041Z,1.55
2023-04-16T13:11:32.907Z,1.27
2023-04-16T13:12:35.489Z,1.20
2023-04-16T13:13:38.132Z,1.40
2023-04-16T13:14:41.455Z,1.42
2023-04-16T13:15:46.485Z,1.35
2023-04-16T13:16:49.095Z,1.20
2023-04-16T13:18:41.227Z,1.40
2023-04-16T13:19:46.312Z,1.42
2023-04-16T13:20:54.886Z,1.30
2023-04-16T13:22:07.749Z,1.23
2023-04-16T13:23:11.650Z,1.20
2023-04-16T13:24:14.578Z,1.20
2023-04-16T13:25:27.148Z,1.20
2023-04-16T13:26:31.984Z,1.20
2023-04-16T13:27:37.792Z,1.85
2023-04-16T13:28:41.890Z,1.30
2023-04-16T13:29:45.126Z,1.23
2023-04-16T13:30:48.157Z,1.15
2023-04-16T13:32:32.191Z,1.40
2023-04-16T13:33:39.913Z,0.90
2023-04-16T13:34:43.113Z,1.25
2023-04-16T13:36:17.131Z,1.20
2023-04-16T13:37:21.563Z,1.15
2023-04-16T13:38:25.060Z,1.08
2023-04-16T13:39:45.888Z,0.90
2023-04-16T13:40:48.661Z,0.93
2023-04-16T13:42:06.456Z,1.08
2023-04-16T13:43:35.033Z,1.30
2023-04-16T13:44:49.566Z,1.42
2023-04-16T13:45:56.726Z,1.23
2023-04-16T13:47:30.922Z,1.08
2023-04-16T13:48:51.563Z,1.23
2023-04-16T13:50:05.595Z,1.10
2023-04-16T13:52:43.578Z,1.02
2023-04-16T13:56:22.489Z,1.30
2023-04-16T13:58:08.147Z,1.02
2023-04-16T13:59:27.528Z,1.10
2023-04-16T14:01:05.216Z,1.08
2023-04-16T14:02:47.292Z,0.98
2023-04-16T14:03:57.615Z,1.17
2023-04-16T14:05:08.078Z,1.13
2023-04-16T14:11:51.621Z,2.00
2023-04-16T14:15:45.525Z,1.85
2023-04-16T14:16:48.918Z,1.80
2023-04-16T14:18:35.295Z,2.13
2023-04-16T14:20:14.594Z,1.58
2023-04-16T14:21:27.459Z,2.95
2023-04-16T14:25:20.766Z,1.75
2023-04-16T14:26:52.285Z,1.60
2023-04-16T14:27:56.751Z,1.52
2023-04-16T14:30:22.473Z,1.38
2023-04-16T14:31:25.906Z,1.08
2023-04-16T14:32:29.417Z,1.63
2023-04-16T14:33:40.216Z,1.33
2023-04-16T14:35:08.728Z,1.73
2023-04-16T14:36:12.124Z,1.60
2023-04-16T14:38:45.484Z,1.38
2023-04-16T14:39:48.613Z,1.52
2023-04-16T14:41:24.648Z,1.85
2023-04-16T14:42:28.298Z,1.20
2023-04-16T14:43:31.378Z,1.13
2023-04-16T14:44:57.949Z,1.60
2023-04-16T14:46:00.721Z,1.35
2023-04-16T14:47:05.411Z,1.25
2023-04-16T14:48:08.567Z,1.20
2023-04-16T14:49:12.370Z,1.63
2023-04-16T14:50:15.931Z,1.17
2023-04-16T14:51:18.818Z,1.00
2023-04-16T14:52:22.943Z,1.13
2023-04-16T14:53:27.087Z,1.17
2023-04-16T14:55:32.918Z,1.20
2023-04-16T14:56:37.837Z,1.30
2023-04-16T14:57:43.917Z,1.20
2023-04-16T14:59:43.346Z,1.20
2023-04-16T15:00:46.718Z,1.17
2023-04-16T15:01:53.372Z,1.30
2023-04-16T15:02:56.571Z,1.48
2023-04-16T15:04:02.085Z,1.20
2023-04-16T15:05:06.200Z,1.65
2023-04-16T15:06:09.476Z,1.20
2023-04-16T15:07:13.201Z,1.00
2023-04-16T15:08:23.194Z,1.35
2023-04-16T15:09:27.658Z,1.15
2023-04-16T15:12:39.088Z,1.15
2023-04-16T15:13:42.036Z,1.48
2023-04-16T15:14:44.698Z,1.30
2023-04-16T15:15:53.650Z,0.82
2023-04-16T15:16:57.390Z,1.50
2023-04-16T15:18:00.967Z,1.45
2023-04-16T15:20:16.731Z,1.40
2023-04-16T15:21:19.973Z,1.63
2023-04-16T15:22:22.777Z,1.85
2023-04-16T15:23:25.978Z,1.40
2023-04-16T15:25:55.527Z,1.70
2023-04-16T15:27:04.237Z,1.35
2023-04-16T15:28:07.040Z,1.33
2023-04-16T15:29:09.776Z,2.03
2023-04-16T15:30:13.649Z,2.28
2023-04-16T15:31:17.232Z,1.80
2023-04-16T15:33:27.185Z,2.35
2023-04-16T15:34:39.308Z,2.05
2023-04-16T15:35:59.694Z,2.00
2023-04-16T15:37:03.741Z,1.65
2023-04-16T15:38:07.399Z,1.83
2023-04-16T15:39:34.933Z,1.92